Pagrindinis puslapis
METAR-TAF:

METAR-TAF

Oro uostai :

Stord, Norvegija

platuma: 59-48N, ilguma: 005-21E, Aukštis: 49 m

Dabartinis oras

Ataskaita buvo paskelbta 2 valandos ir 9 minutes, ne 11:20 UTC
Vėjas 6 kt iš Rytų/Pietryčių
Temperatūra 4°C
Drėgmė 93%
Slėgis 993 hPa
Matomumas 10 km arba daugiau
Išsisklaidę debesys ne aukštis 2000 ft, aukštai iškilę kamuoliniai debesys.

METAR: ENSO 161120Z 12006KT 9999 SCT020TCU 04/03 Q0993

Laikas: 14:29 (13:29 UTC)

Prognozė

Ataskaita buvo paskelbta 2 valandos ir 29 minutes, ne 11:00 UTC
Prognozė galioja nuo 16 metu 12 UTC su 16 metu 18 UTC
Vėjas 12 kt iš Pietų/Pietryčių
Matomumas 10 km arba daugiau
Mažai debesys ne aukštis 1500 ft, aukštai iškilę kamuoliniai debesys.
Su prošvaistėmis ne aukštis 3000 ft
Laikinai
nuo 16 metu 12 UTC su 16 metu 18 UTC
Su prošvaistėmis ne aukštis 2000 ft, Liūtiniai kamuoliniai debesys.
lietus, ledo ar sniego kruopos

TAF: ENSO 161100Z 1612/1618 15012KT 9999 FEW015TCU BKN030 TEMPO 1612/1618 SHRAGS BKN020CB

Orai ataskaitas ir orų prognozės (METAR, TAF).

turimą stotys yra geltonos ir raudonos taškus žemėlapyje.

Perkelti pele per norėdami pamatyti stoties vardą.

Tada spustelėkite, norėdami matyti oro stebėjimo ir prognozės.

Norėdami pakeisti žemėlapį: spustelėkite ant žalios mygtukų su juodo kryžiaus žemyn,; žalią mygtuką su brūkšneliu, jei norite nutolinti; arba žalių rodyklių gretimoms žemėlapius.


METAR-TAF: